createdAt,value
2023-03-14T00:01:25.851Z,9.10
2023-03-14T00:03:57.302Z,9.02
2023-03-14T00:06:28.344Z,9.04
2023-03-14T00:08:58.448Z,9.10
2023-03-14T00:11:28.673Z,9.18
2023-03-14T00:13:58.605Z,9.12
2023-03-14T00:16:30.024Z,9.20
2023-03-14T00:19:02.469Z,9.10
2023-03-14T00:21:32.232Z,9.04
2023-03-14T00:24:02.450Z,9.02
2023-03-14T00:26:32.083Z,8.98
2023-03-14T00:29:02.087Z,8.97
2023-03-14T00:31:32.159Z,8.93
2023-03-14T00:34:03.603Z,8.99
2023-03-14T00:36:35.015Z,8.89
2023-03-14T00:39:05.223Z,9.04
2023-03-14T00:41:34.901Z,8.98
2023-03-14T00:44:05.020Z,9.05
2023-03-14T00:46:34.874Z,9.08
2023-03-14T00:49:06.454Z,9.02
2023-03-14T00:51:36.180Z,9.01
2023-03-14T00:54:06.150Z,9.12
2023-03-14T00:56:35.911Z,9.16
2023-03-14T00:59:06.223Z,9.30
2023-03-14T01:01:36.020Z,9.26
2023-03-14T01:04:07.943Z,9.25
2023-03-14T01:06:37.648Z,9.21
2023-03-14T01:09:07.950Z,9.26
2023-03-14T01:11:38.427Z,9.47
2023-03-14T01:14:08.525Z,9.36
2023-03-14T01:16:38.161Z,9.33
2023-03-14T01:19:09.736Z,9.36
2023-03-14T01:21:39.809Z,9.27
2023-03-14T01:24:09.989Z,9.25
2023-03-14T01:26:39.554Z,9.32
2023-03-14T01:29:10.834Z,9.28
2023-03-14T01:31:41.957Z,9.24
2023-03-14T01:34:13.487Z,9.26
2023-03-14T01:36:43.491Z,9.30
2023-03-14T01:39:14.362Z,9.20
2023-03-14T01:41:44.310Z,9.17
2023-03-14T01:44:14.757Z,9.25
2023-03-14T01:46:45.307Z,9.21
2023-03-14T01:49:20.785Z,9.30
2023-03-14T01:51:59.340Z,9.23
2023-03-14T01:54:32.764Z,9.19
2023-03-14T01:57:06.168Z,9.18
2023-03-14T01:59:37.262Z,9.16
2023-03-14T02:02:08.968Z,9.19
2023-03-14T02:04:41.464Z,9.21
2023-03-14T02:07:14.636Z,9.17
2023-03-14T02:09:51.595Z,9.27
2023-03-14T02:12:27.447Z,9.23
2023-03-14T02:15:15.864Z,9.19
2023-03-14T02:18:01.356Z,9.23
2023-03-14T02:20:54.563Z,9.23
2023-03-14T02:23:28.042Z,9.21
2023-03-14T02:26:00.922Z,9.13
2023-03-14T02:28:32.092Z,9.05
2023-03-14T02:31:04.776Z,9.03
2023-03-14T02:33:37.982Z,9.00
2023-03-14T02:36:10.113Z,8.99
2023-03-14T02:38:43.453Z,8.94
2023-03-14T02:41:13.460Z,8.82
2023-03-14T02:43:50.717Z,8.92
2023-03-14T02:46:21.438Z,8.94
2023-03-14T02:48:53.204Z,8.89
2023-03-14T02:51:23.930Z,8.81
2023-03-14T02:53:53.630Z,8.75
2023-03-14T02:56:25.579Z,8.70
2023-03-14T02:58:58.985Z,8.69
2023-03-14T03:01:36.689Z,8.71
2023-03-14T03:04:06.677Z,8.66
2023-03-14T03:06:36.639Z,8.59
2023-03-14T03:09:06.329Z,8.59
2023-03-14T03:11:36.488Z,8.56
2023-03-14T03:14:09.369Z,8.52
2023-03-14T03:16:39.285Z,8.61
2023-03-14T03:19:08.899Z,8.57
2023-03-14T03:21:38.750Z,8.61
2023-03-14T03:24:08.753Z,8.64
2023-03-14T03:26:39.134Z,8.61
2023-03-14T03:29:13.309Z,8.78
2023-03-14T03:31:43.354Z,8.85
2023-03-14T03:34:13.600Z,8.91
2023-03-14T03:36:44.446Z,8.91
2023-03-14T03:39:15.067Z,8.92
2023-03-14T03:41:45.466Z,9.19
2023-03-14T03:44:16.678Z,9.21
2023-03-14T03:46:46.778Z,9.28
2023-03-14T03:49:16.335Z,9.29
2023-03-14T03:51:46.358Z,9.20
2023-03-14T03:54:16.568Z,9.17
2023-03-14T03:56:46.459Z,9.14
2023-03-14T03:59:17.627Z,9.17
2023-03-14T04:01:48.897Z,9.26
2023-03-14T04:04:19.247Z,9.27
2023-03-14T04:06:50.490Z,9.27
2023-03-14T04:09:21.057Z,9.23
2023-03-14T04:12:10.201Z,9.18
2023-03-14T04:14:58.351Z,9.26
2023-03-14T04:17:28.732Z,9.22
2023-03-14T04:19:58.477Z,9.27
2023-03-14T04:22:36.250Z,9.22
2023-03-14T04:25:06.501Z,9.15
2023-03-14T04:27:40.762Z,9.12
2023-03-14T04:30:20.666Z,9.10
2023-03-14T04:33:11.196Z,9.17
2023-03-14T04:35:47.329Z,9.13
2023-03-14T04:38:19.101Z,9.08
2023-03-14T04:40:51.157Z,9.08
2023-03-14T04:43:22.699Z,9.06
2023-03-14T04:46:02.337Z,9.05
2023-03-14T04:48:32.370Z,9.08
2023-03-14T04:51:02.895Z,9.02
2023-03-14T04:53:36.968Z,8.97
2023-03-14T04:56:10.283Z,8.91
2023-03-14T04:58:42.531Z,8.93
2023-03-14T05:01:13.879Z,8.95
2023-03-14T05:04:07.272Z,8.89
2023-03-14T05:06:53.274Z,8.84
2023-03-14T05:09:37.632Z,8.78
2023-03-14T05:12:42.678Z,8.68
2023-03-14T05:15:30.987Z,8.64
2023-03-14T05:18:20.329Z,8.56
2023-03-14T05:21:02.043Z,8.59
2023-03-14T05:23:57.832Z,8.48
2023-03-14T05:26:49.003Z,8.43
2023-03-14T05:29:30.647Z,8.39
2023-03-14T05:32:20.945Z,8.43
2023-03-14T05:35:16.416Z,8.34
2023-03-14T05:37:55.750Z,8.35
2023-03-14T05:40:34.256Z,8.36
2023-03-14T05:43:39.392Z,8.40
2023-03-14T05:46:27.543Z,8.46
2023-03-14T05:49:05.814Z,8.50
2023-03-14T05:51:57.162Z,8.48
2023-03-14T05:54:30.128Z,8.51
2023-03-14T05:57:10.172Z,8.48
2023-03-14T06:00:09.903Z,8.50
2023-03-14T06:03:01.754Z,8.48
2023-03-14T06:05:36.924Z,8.46
2023-03-14T06:08:08.610Z,8.53
2023-03-14T06:10:39.498Z,8.49
2023-03-14T06:13:09.070Z,8.49
2023-03-14T06:15:39.008Z,8.53
2023-03-14T06:18:08.732Z,8.55
2023-03-14T06:20:40.428Z,8.60
2023-03-14T06:23:13.708Z,8.66
2023-03-14T06:25:44.513Z,8.70
2023-03-14T06:28:14.061Z,8.75
2023-03-14T06:30:44.177Z,8.74
2023-03-14T06:33:15.941Z,8.81
2023-03-14T06:35:46.670Z,8.82
2023-03-14T06:38:18.081Z,8.86
2023-03-14T06:40:49.333Z,8.85
2023-03-14T06:43:29.341Z,8.88
2023-03-14T06:45:59.396Z,8.90
2023-03-14T06:48:29.229Z,8.92
2023-03-14T06:50:59.473Z,9.01
2023-03-14T06:53:31.235Z,9.02
2023-03-14T06:56:03.226Z,9.12
2023-03-14T06:58:35.332Z,9.11
2023-03-14T07:01:08.384Z,9.10
2023-03-14T07:03:43.653Z,9.14
2023-03-14T07:06:14.192Z,9.16
2023-03-14T07:08:45.272Z,9.19
2023-03-14T07:11:15.290Z,9.20
2023-03-14T07:13:45.062Z,9.26
2023-03-14T07:16:15.604Z,9.33
2023-03-14T07:18:45.371Z,9.42
2023-03-14T07:21:15.322Z,9.43
2023-03-14T07:23:46.471Z,9.49
2023-03-14T07:26:17.443Z,9.56
2023-03-14T07:28:52.242Z,9.61
2023-03-14T07:31:23.489Z,9.65
2023-03-14T07:33:53.261Z,9.71
2023-03-14T07:36:25.364Z,9.76
2023-03-14T07:38:58.713Z,9.82
2023-03-14T07:41:37.742Z,9.88
2023-03-14T07:44:25.846Z,9.97
2023-03-14T07:46:56.143Z,10.04
2023-03-14T07:49:25.945Z,10.14
2023-03-14T07:51:56.059Z,10.20
2023-03-14T07:54:27.449Z,10.32
2023-03-14T07:56:57.368Z,10.41
2023-03-14T07:59:26.880Z,10.46
2023-03-14T08:01:56.937Z,10.48
2023-03-14T08:04:26.608Z,10.51
2023-03-14T08:06:57.006Z,10.60
2023-03-14T08:09:28.150Z,10.65
2023-03-14T08:11:58.827Z,10.64
2023-03-14T08:14:30.398Z,10.66
2023-03-14T08:17:00.872Z,10.68
2023-03-14T08:19:30.686Z,10.69
2023-03-14T08:22:07.071Z,10.72
2023-03-14T08:24:45.352Z,10.77
2023-03-14T08:27:16.396Z,10.83
2023-03-14T08:29:47.078Z,10.93
2023-03-14T08:32:32.083Z,10.97
2023-03-14T08:35:03.010Z,10.97
2023-03-14T08:37:33.579Z,10.95
2023-03-14T08:40:07.611Z,10.95
2023-03-14T08:42:37.592Z,10.94
2023-03-14T08:45:12.646Z,10.94
2023-03-14T08:47:59.876Z,10.95
2023-03-14T08:50:29.452Z,11.00
2023-03-14T08:53:02.139Z,11.00
2023-03-14T08:55:33.378Z,10.99
2023-03-14T08:58:03.245Z,11.02
2023-03-14T09:00:32.846Z,11.08
2023-03-14T09:03:02.890Z,11.18
2023-03-14T09:05:35.222Z,11.23
2023-03-14T09:08:05.255Z,11.41
2023-03-14T09:10:36.408Z,11.72
2023-03-14T09:13:06.544Z,11.99
2023-03-14T09:15:36.388Z,12.00
2023-03-14T09:18:06.559Z,11.92
2023-03-14T09:20:36.407Z,11.91
2023-03-14T09:23:06.339Z,11.88
2023-03-14T09:25:37.513Z,11.88
2023-03-14T09:28:07.589Z,11.77
2023-03-14T09:30:37.228Z,11.75
2023-03-14T09:33:07.328Z,11.70
2023-03-14T09:35:37.253Z,11.67
2023-03-14T09:38:07.786Z,11.57
2023-03-14T09:40:39.170Z,11.47
2023-03-14T09:43:12.672Z,11.38
2023-03-14T09:45:44.181Z,11.31
2023-03-14T09:48:17.975Z,11.26
2023-03-14T09:50:48.952Z,11.20
2023-03-14T09:53:20.322Z,11.17
2023-03-14T09:55:52.328Z,11.10
2023-03-14T09:58:23.590Z,11.10
2023-03-14T10:00:54.964Z,11.05
2023-03-14T10:03:27.605Z,10.92
2023-03-14T10:05:57.566Z,10.93
2023-03-14T10:08:27.627Z,10.91
2023-03-14T10:10:58.824Z,10.89
2023-03-14T10:13:30.633Z,10.88
2023-03-14T10:16:02.469Z,10.85
2023-03-14T10:18:35.374Z,10.81
2023-03-14T10:21:05.963Z,10.78
2023-03-14T10:23:36.710Z,10.77
2023-03-14T10:26:10.346Z,10.76
2023-03-14T10:28:42.352Z,10.79
2023-03-14T10:31:12.285Z,10.79
2023-03-14T10:33:43.048Z,10.80
2023-03-14T10:36:22.214Z,10.83
2023-03-14T10:38:52.403Z,10.87
2023-03-14T10:41:28.349Z,10.94
2023-03-14T10:44:00.811Z,10.98
2023-03-14T10:46:33.468Z,11.05
2023-03-14T10:49:28.475Z,11.08
2023-03-14T10:52:03.200Z,11.14
2023-03-14T10:54:33.388Z,11.19
2023-03-14T10:57:07.195Z,11.18
2023-03-14T10:59:38.403Z,11.15
2023-03-14T11:02:18.293Z,11.17
2023-03-14T11:04:56.721Z,11.25
2023-03-14T11:07:30.198Z,11.27
2023-03-14T11:10:03.664Z,11.26
2023-03-14T11:12:40.920Z,11.21
2023-03-14T11:15:17.894Z,11.15
2023-03-14T11:17:56.410Z,11.19
2023-03-14T11:20:33.788Z,11.25
2023-03-14T11:23:06.790Z,11.34
2023-03-14T11:25:45.641Z,11.48
2023-03-14T11:28:20.766Z,11.72
2023-03-14T11:30:53.594Z,11.99
2023-03-14T11:33:26.411Z,12.02
2023-03-14T11:36:01.393Z,11.90
2023-03-14T11:38:32.206Z,11.95
2023-03-14T11:41:02.449Z,11.97
2023-03-14T11:43:36.289Z,12.10
2023-03-14T11:46:08.799Z,12.32
2023-03-14T11:48:42.165Z,12.48
2023-03-14T11:51:16.614Z,12.58
2023-03-14T11:53:50.931Z,12.64
2023-03-14T11:56:25.812Z,12.64
2023-03-14T11:59:00.130Z,12.80
2023-03-14T12:01:36.647Z,12.89
2023-03-14T12:04:12.960Z,12.69
2023-03-14T12:06:49.349Z,12.55
2023-03-14T12:09:20.252Z,12.71
2023-03-14T12:11:54.050Z,12.87
2023-03-14T12:14:27.437Z,12.93
2023-03-14T12:17:01.172Z,13.02
2023-03-14T12:19:35.445Z,13.17
2023-03-14T12:22:19.479Z,13.18
2023-03-14T12:24:51.690Z,13.44
2023-03-14T12:27:39.478Z,13.23
2023-03-14T12:30:18.118Z,13.22
2023-03-14T12:33:13.340Z,12.89
2023-03-14T12:35:43.902Z,12.79
2023-03-14T12:38:16.037Z,12.90
2023-03-14T12:40:55.909Z,12.83
2023-03-14T12:43:30.399Z,12.93
2023-03-14T12:46:14.863Z,12.90
2023-03-14T12:48:47.496Z,12.97
2023-03-14T12:51:18.432Z,13.21
2023-03-14T12:54:01.862Z,13.40
2023-03-14T12:56:41.280Z,13.31
2023-03-14T12:59:30.390Z,13.36
2023-03-14T13:02:02.698Z,13.38
2023-03-14T13:04:40.305Z,13.40
2023-03-14T13:07:14.818Z,13.31
2023-03-14T13:09:59.766Z,13.25
2023-03-14T13:12:37.394Z,13.16
2023-03-14T13:15:18.107Z,13.13
2023-03-14T13:17:49.376Z,13.18
2023-03-14T13:20:23.301Z,13.28
2023-03-14T13:22:53.519Z,13.10
2023-03-14T13:25:24.346Z,13.09
2023-03-14T13:27:56.944Z,13.04
2023-03-14T13:30:28.083Z,13.40
2023-03-14T13:32:58.322Z,13.75
2023-03-14T13:35:32.232Z,13.93
2023-03-14T13:38:18.066Z,14.19
2023-03-14T13:40:50.336Z,14.27
2023-03-14T13:43:21.992Z,13.80
2023-03-14T13:45:53.582Z,13.46
2023-03-14T13:48:24.115Z,13.26
2023-03-14T13:50:57.360Z,13.16
2023-03-14T13:53:27.376Z,13.16
2023-03-14T13:55:57.399Z,13.33
2023-03-14T13:58:30.554Z,13.39
2023-03-14T14:01:08.098Z,13.40
2023-03-14T14:03:40.495Z,13.25
2023-03-14T14:06:19.141Z,13.12
2023-03-14T14:08:48.809Z,12.97
2023-03-14T14:11:28.016Z,12.88
2023-03-14T14:14:02.828Z,12.85
2023-03-14T14:16:33.898Z,12.74
2023-03-14T14:19:04.295Z,12.34
2023-03-14T14:21:35.817Z,12.00
2023-03-14T14:24:08.333Z,11.90
2023-03-14T14:26:42.199Z,11.83
2023-03-14T14:29:24.146Z,11.79
2023-03-14T14:32:02.851Z,11.74
2023-03-14T14:34:41.396Z,11.78
2023-03-14T14:37:32.223Z,11.78
2023-03-14T14:40:09.339Z,11.81
2023-03-14T14:42:42.667Z,11.86
2023-03-14T14:45:15.936Z,11.86
2023-03-14T14:47:53.154Z,11.86
2023-03-14T14:50:29.445Z,11.83
2023-03-14T14:53:00.233Z,11.81
2023-03-14T14:55:34.877Z,11.75
2023-03-14T14:58:14.734Z,11.73
2023-03-14T15:00:52.599Z,11.76
2023-03-14T15:03:22.598Z,11.75
2023-03-14T15:05:52.311Z,11.74
2023-03-14T15:08:22.401Z,11.72
2023-03-14T15:10:53.513Z,11.69
2023-03-14T15:13:23.600Z,11.77
2023-03-14T15:15:57.373Z,11.74
2023-03-14T15:18:30.887Z,11.77
2023-03-14T15:21:01.488Z,11.79
2023-03-14T15:23:31.444Z,11.74
2023-03-14T15:26:02.537Z,11.71
2023-03-14T15:28:32.568Z,11.70
2023-03-14T15:31:02.463Z,11.65
2023-03-14T15:33:32.526Z,11.59
2023-03-14T15:36:02.441Z,11.54
2023-03-14T15:38:33.249Z,11.53
2023-03-14T15:41:04.508Z,11.53
2023-03-14T15:43:35.601Z,11.51
2023-03-14T15:46:07.518Z,11.48
2023-03-14T15:48:37.639Z,11.47
2023-03-14T15:51:07.485Z,11.48
2023-03-14T15:53:39.322Z,11.42
2023-03-14T15:56:13.533Z,11.38
2023-03-14T15:58:47.735Z,11.33
2023-03-14T16:01:18.275Z,11.33
2023-03-14T16:03:50.390Z,11.34
2023-03-14T16:06:20.384Z,11.29
2023-03-14T16:08:50.645Z,11.24
2023-03-14T16:11:23.099Z,11.21
2023-03-14T16:13:53.472Z,11.20
2023-03-14T16:16:23.078Z,11.13
2023-03-14T16:18:53.381Z,11.07
2023-03-14T16:21:23.520Z,11.04
2023-03-14T16:23:53.439Z,10.98
2023-03-14T16:26:25.747Z,10.93
2023-03-14T16:28:57.717Z,10.87
2023-03-14T16:31:27.241Z,10.78
2023-03-14T16:33:57.560Z,10.75
2023-03-14T16:36:28.924Z,10.68
2023-03-14T16:38:59.047Z,10.60
2023-03-14T16:41:31.944Z,10.55
2023-03-14T16:44:03.763Z,10.53
2023-03-14T16:46:37.226Z,10.49
2023-03-14T16:49:10.098Z,10.43
2023-03-14T16:51:40.798Z,10.37
2023-03-14T16:54:11.243Z,10.35
2023-03-14T16:56:42.237Z,10.27
2023-03-14T16:59:12.660Z,10.31
2023-03-14T17:01:43.240Z,10.27
2023-03-14T17:04:13.694Z,10.23
2023-03-14T17:06:45.932Z,10.19
2023-03-14T17:09:16.685Z,10.17
2023-03-14T17:11:48.408Z,10.13
2023-03-14T17:14:20.033Z,10.12
2023-03-14T17:16:51.214Z,10.08
2023-03-14T17:19:21.414Z,9.99
2023-03-14T17:21:57.915Z,9.93
2023-03-14T17:24:28.863Z,9.74
2023-03-14T17:27:00.525Z,9.61
2023-03-14T17:29:31.361Z,9.61
2023-03-14T17:32:01.108Z,9.48
2023-03-14T17:34:31.398Z,9.41
2023-03-14T17:37:01.064Z,9.36
2023-03-14T17:39:31.029Z,9.28
2023-03-14T17:42:03.451Z,9.16
2023-03-14T17:44:35.136Z,9.11
2023-03-14T17:47:04.813Z,9.11
2023-03-14T17:49:39.817Z,9.07
2023-03-14T17:52:20.336Z,9.12
2023-03-14T17:54:58.423Z,9.12
2023-03-14T17:57:39.783Z,8.98
2023-03-14T18:00:18.862Z,8.83
2023-03-14T18:02:54.288Z,8.66
2023-03-14T18:05:28.477Z,8.43
2023-03-14T18:07:58.440Z,8.29
2023-03-14T18:10:29.451Z,8.23
2023-03-14T18:13:02.507Z,8.19
2023-03-14T18:15:39.519Z,8.22
2023-03-14T18:18:15.042Z,8.26
2023-03-14T18:20:51.744Z,8.30
2023-03-14T18:23:32.291Z,8.50
2023-03-14T18:26:07.483Z,8.62
2023-03-14T18:28:38.855Z,8.65
2023-03-14T18:31:09.521Z,8.75
2023-03-14T18:33:44.348Z,8.90
2023-03-14T18:36:19.342Z,9.16
2023-03-14T18:38:58.748Z,9.35
2023-03-14T18:41:40.507Z,9.41
2023-03-14T18:44:20.553Z,9.52
2023-03-14T18:46:56.690Z,9.63
2023-03-14T18:49:36.565Z,9.67
2023-03-14T18:52:13.745Z,9.83
2023-03-14T18:54:44.646Z,9.88
2023-03-14T18:57:16.333Z,9.92
2023-03-14T18:59:54.703Z,9.91
2023-03-14T19:02:26.417Z,9.86
2023-03-14T19:04:56.393Z,9.88
2023-03-14T19:07:29.404Z,10.11
2023-03-14T19:10:02.765Z,10.01
2023-03-14T19:12:33.406Z,9.67
2023-03-14T19:15:05.143Z,9.42
2023-03-14T19:17:36.347Z,9.27
2023-03-14T19:20:07.728Z,9.24
2023-03-14T19:22:40.488Z,9.13
2023-03-14T19:25:12.679Z,9.10
2023-03-14T19:27:48.744Z,9.12
2023-03-14T19:30:23.416Z,8.96
2023-03-14T19:32:54.377Z,7.40
2023-03-14T19:35:24.189Z,6.66
2023-03-14T19:37:54.203Z,6.35
2023-03-14T19:40:23.890Z,5.51
2023-03-14T19:42:53.769Z,5.01
2023-03-14T19:45:24.936Z,4.69
2023-03-14T19:47:54.806Z,4.22
2023-03-14T19:50:26.185Z,3.96
2023-03-14T19:52:56.406Z,3.74
2023-03-14T19:55:27.288Z,3.36
2023-03-14T19:57:57.300Z,3.05
2023-03-14T20:00:28.299Z,2.90
2023-03-14T20:02:58.442Z,2.75
2023-03-14T20:05:27.997Z,2.64
2023-03-14T20:07:57.834Z,2.58
2023-03-14T20:10:27.602Z,2.57
2023-03-14T20:13:00.948Z,2.41
2023-03-14T20:15:32.200Z,2.40
2023-03-14T20:18:02.371Z,2.32
2023-03-14T20:20:32.019Z,2.26
2023-03-14T20:23:02.302Z,2.12
2023-03-14T20:25:32.614Z,1.96
2023-03-14T20:28:04.581Z,2.02
2023-03-14T20:30:35.914Z,1.98
2023-03-14T20:33:06.262Z,2.00
2023-03-14T20:35:36.376Z,2.01
2023-03-14T20:38:06.339Z,2.07
2023-03-14T20:40:36.090Z,1.98
2023-03-14T20:43:06.322Z,2.00
2023-03-14T20:45:37.464Z,2.03
2023-03-14T20:48:07.925Z,1.99
2023-03-14T20:50:39.170Z,2.01
2023-03-14T20:53:09.426Z,2.00
2023-03-14T20:55:39.293Z,1.98
2023-03-14T20:58:10.984Z,1.97
2023-03-14T21:00:42.874Z,1.90
2023-03-14T21:03:14.766Z,1.89
2023-03-14T21:05:45.558Z,1.90
2023-03-14T21:08:16.420Z,1.87
2023-03-14T21:10:48.388Z,1.82
2023-03-14T21:13:18.817Z,1.80
2023-03-14T21:15:50.198Z,1.81
2023-03-14T21:18:23.470Z,1.72
2023-03-14T21:20:54.720Z,1.78
2023-03-14T21:23:26.870Z,1.78
2023-03-14T21:25:57.322Z,1.68
2023-03-14T21:28:27.921Z,1.74
2023-03-14T21:31:05.340Z,1.65
2023-03-14T21:33:36.353Z,1.64
2023-03-14T21:36:06.540Z,1.61
2023-03-14T21:38:37.026Z,1.60
2023-03-14T21:41:07.966Z,1.56
2023-03-14T21:43:38.255Z,1.59
2023-03-14T21:46:09.408Z,1.55
2023-03-14T21:48:39.592Z,1.57
2023-03-14T21:51:09.515Z,1.58
2023-03-14T21:53:39.414Z,1.57
2023-03-14T21:56:09.531Z,1.57
2023-03-14T21:58:39.623Z,1.55
2023-03-14T22:01:11.086Z,1.57
2023-03-14T22:03:41.112Z,1.55
2023-03-14T22:06:10.910Z,1.60
2023-03-14T22:08:41.028Z,1.60
2023-03-14T22:11:10.599Z,1.58
2023-03-14T22:13:40.789Z,1.60
2023-03-14T22:16:12.208Z,1.64
2023-03-14T22:18:42.487Z,1.69
2023-03-14T22:21:12.167Z,1.69
2023-03-14T22:23:42.097Z,1.74
2023-03-14T22:26:11.836Z,1.79
2023-03-14T22:28:41.877Z,1.88
2023-03-14T22:31:13.273Z,1.97
2023-03-14T22:33:43.375Z,2.11
2023-03-14T22:36:13.273Z,2.11
2023-03-14T22:38:43.508Z,2.10
2023-03-14T22:41:13.373Z,2.22
2023-03-14T22:43:43.544Z,2.22
2023-03-14T22:46:14.756Z,2.29
2023-03-14T22:48:44.694Z,2.27
2023-03-14T22:51:15.035Z,2.29
2023-03-14T22:53:44.894Z,2.32
2023-03-14T22:56:14.555Z,2.31
2023-03-14T22:58:44.503Z,2.29
2023-03-14T23:01:15.755Z,2.29
2023-03-14T23:03:45.779Z,2.30
2023-03-14T23:06:15.438Z,2.31
2023-03-14T23:08:45.841Z,2.32
2023-03-14T23:11:15.568Z,2.35
2023-03-14T23:13:47.965Z,2.40
2023-03-14T23:16:25.199Z,2.44
2023-03-14T23:19:00.298Z,2.47
2023-03-14T23:21:29.896Z,2.48
2023-03-14T23:23:59.782Z,2.45
2023-03-14T23:26:30.978Z,2.48
2023-03-14T23:29:00.846Z,2.53
2023-03-14T23:31:31.824Z,2.51
2023-03-14T23:34:01.753Z,2.48
2023-03-14T23:36:31.289Z,2.53
2023-03-14T23:39:01.263Z,2.48
2023-03-14T23:41:30.770Z,2.51
2023-03-14T23:44:02.047Z,2.47
2023-03-14T23:46:33.230Z,2.48
2023-03-14T23:49:03.673Z,2.52
2023-03-14T23:51:33.212Z,2.48
2023-03-14T23:54:03.100Z,2.50
2023-03-14T23:56:32.729Z,2.59
2023-03-14T23:59:02.544Z,2.60
